createdAt,value
2018-02-25T00:01:46.973Z,18.40
2018-02-25T00:04:18.112Z,11.35
2018-02-25T00:06:50.473Z,14.90
2018-02-25T00:09:24.598Z,15.65
2018-02-25T00:11:56.493Z,9.75
2018-02-25T00:14:27.692Z,14.90
2018-02-25T00:17:00.693Z,14.07
2018-02-25T00:19:34.093Z,12.90
2018-02-25T00:22:08.173Z,14.85
2018-02-25T00:24:43.433Z,14.52
2018-02-25T00:27:15.281Z,14.10
2018-02-25T00:29:46.952Z,17.33
2018-02-25T00:32:20.653Z,12.57
2018-02-25T00:34:51.993Z,15.13
2018-02-25T00:37:25.913Z,14.60
2018-02-25T00:39:58.393Z,14.90
2018-02-25T00:42:33.412Z,14.27
2018-02-25T00:45:07.112Z,14.30
2018-02-25T00:47:41.332Z,14.43
2018-02-25T00:50:13.472Z,12.75
2018-02-25T00:52:48.932Z,10.80
2018-02-25T00:55:21.713Z,15.20
2018-02-25T00:57:56.433Z,15.02
2018-02-25T01:00:28.712Z,16.10
2018-02-25T01:03:03.454Z,14.55
2018-02-25T01:05:40.472Z,13.48
2018-02-25T01:08:12.572Z,14.00
2018-02-25T01:10:45.252Z,14.20
2018-02-25T01:13:16.613Z,14.02
2018-02-25T01:15:47.532Z,14.07
2018-02-25T01:18:20.732Z,14.40
2018-02-25T01:20:52.613Z,12.82
2018-02-25T01:23:24.672Z,11.95
2018-02-25T01:25:56.113Z,10.05
2018-02-25T01:28:28.172Z,13.45
2018-02-25T01:31:02.092Z,12.27
2018-02-25T01:33:33.012Z,10.10
2018-02-25T01:36:04.872Z,11.68
2018-02-25T01:38:35.492Z,12.45
2018-02-25T01:41:06.492Z,11.52
2018-02-25T01:43:40.973Z,11.93
2018-02-25T01:46:12.472Z,10.65
2018-02-25T01:48:44.172Z,11.80
2018-02-25T01:51:15.832Z,9.98
2018-02-25T01:53:47.073Z,11.80
2018-02-25T01:56:21.080Z,14.05
2018-02-25T01:58:53.973Z,13.65
2018-02-25T02:01:26.132Z,11.32
2018-02-25T02:03:58.092Z,13.38
2018-02-25T02:06:30.532Z,13.02
2018-02-25T02:09:02.212Z,11.77
2018-02-25T02:11:34.594Z,11.20
2018-02-25T02:14:13.314Z,11.27
2018-02-25T02:16:44.252Z,12.13
2018-02-25T02:19:17.513Z,12.73
2018-02-25T02:21:49.301Z,13.15
2018-02-25T02:24:25.473Z,12.35
2018-02-25T02:26:58.953Z,11.02
2018-02-25T02:29:30.833Z,13.20
2018-02-25T02:32:06.534Z,11.50
2018-02-25T02:34:42.492Z,12.30
2018-02-25T02:37:14.993Z,11.23
2018-02-25T02:39:46.953Z,10.10
2018-02-25T02:42:18.192Z,13.45
2018-02-25T02:44:49.978Z,12.10
2018-02-25T02:47:20.915Z,12.90
2018-02-25T02:49:52.352Z,13.13
2018-02-25T02:52:25.334Z,12.55
2018-02-25T02:54:59.233Z,12.75
2018-02-25T02:57:30.173Z,12.77
2018-02-25T03:00:03.892Z,10.73
2018-02-25T03:02:35.233Z,12.57
2018-02-25T03:05:06.373Z,12.82
2018-02-25T03:07:37.754Z,12.88
2018-02-25T03:10:09.272Z,11.70
2018-02-25T03:12:40.712Z,11.75
2018-02-25T03:15:12.895Z,12.50
2018-02-25T03:17:45.773Z,14.13
2018-02-25T03:20:17.936Z,12.75
2018-02-25T03:22:49.992Z,11.90
2018-02-25T03:25:21.140Z,12.43
2018-02-25T03:27:51.973Z,11.73
2018-02-25T03:30:23.134Z,11.38
2018-02-25T03:32:55.692Z,13.48
2018-02-25T03:35:28.474Z,12.05
2018-02-25T03:37:58.692Z,11.32
2018-02-25T03:40:31.794Z,12.30
2018-02-25T03:43:05.073Z,13.90
2018-02-25T03:45:37.652Z,11.02
2018-02-25T03:48:15.492Z,12.10
2018-02-25T03:50:49.056Z,13.70
2018-02-25T03:53:22.132Z,13.38
2018-02-25T03:55:55.432Z,13.35
2018-02-25T03:58:26.973Z,12.80
2018-02-25T04:00:59.492Z,13.15
2018-02-25T04:03:34.493Z,12.27
2018-02-25T04:06:06.875Z,12.57
2018-02-25T04:08:39.633Z,11.00
2018-02-25T04:11:13.652Z,12.25
2018-02-25T04:13:45.412Z,10.02
2018-02-25T04:16:18.813Z,11.68
2018-02-25T04:18:50.472Z,9.82
2018-02-25T04:21:22.333Z,11.95
2018-02-25T04:23:53.973Z,12.50
2018-02-25T04:26:25.432Z,12.20
2018-02-25T04:28:58.013Z,11.27
2018-02-25T04:31:35.172Z,12.02
2018-02-25T04:34:09.192Z,11.85
2018-02-25T04:36:41.373Z,12.18
2018-02-25T04:39:19.512Z,11.85
2018-02-25T04:41:52.452Z,12.00
2018-02-25T04:44:23.533Z,12.05
2018-02-25T04:46:55.673Z,11.25
2018-02-25T04:49:26.792Z,10.63
2018-02-25T04:51:58.454Z,10.50
2018-02-25T04:54:28.792Z,9.57
2018-02-25T04:57:06.673Z,11.40
2018-02-25T04:59:37.932Z,11.12
2018-02-25T05:02:10.192Z,8.50
2018-02-25T05:04:48.293Z,10.77
2018-02-25T05:07:20.758Z,11.15
2018-02-25T05:09:52.014Z,9.00
2018-02-25T05:12:23.055Z,9.57
2018-02-25T05:14:54.493Z,10.25
2018-02-25T05:17:24.634Z,12.30
2018-02-25T05:19:57.539Z,12.10
2018-02-25T05:22:30.552Z,12.73
2018-02-25T05:25:02.860Z,11.93
2018-02-25T05:27:34.413Z,12.43
2018-02-25T05:30:08.432Z,9.82
2018-02-25T05:32:44.493Z,11.93
2018-02-25T05:35:18.392Z,10.82
2018-02-25T05:37:50.253Z,10.75
2018-02-25T05:40:23.433Z,12.50
2018-02-25T05:42:56.732Z,10.82
2018-02-25T05:45:34.012Z,8.25
2018-02-25T05:48:05.512Z,11.05
2018-02-25T05:50:36.812Z,9.15
2018-02-25T05:53:08.073Z,13.02
2018-02-25T05:55:39.913Z,11.45
2018-02-25T05:58:14.952Z,12.35
2018-02-25T06:00:51.113Z,13.30
2018-02-25T06:03:24.933Z,9.85
2018-02-25T06:05:55.976Z,11.43
2018-02-25T06:08:27.612Z,12.18
2018-02-25T06:10:58.772Z,12.37
2018-02-25T06:13:31.032Z,13.60
2018-02-25T06:16:02.532Z,11.95
2018-02-25T06:18:34.432Z,10.70
2018-02-25T06:21:06.553Z,11.70
2018-02-25T06:23:41.854Z,12.90
2018-02-25T06:26:14.012Z,12.65
2018-02-25T06:28:48.012Z,11.63
2018-02-25T06:31:19.534Z,10.93
2018-02-25T06:33:50.817Z,10.57
2018-02-25T06:36:22.794Z,14.30
2018-02-25T06:38:55.872Z,14.25
2018-02-25T06:41:29.672Z,12.65
2018-02-25T06:44:01.633Z,13.65
2018-02-25T06:46:34.112Z,10.25
2018-02-25T06:49:05.852Z,12.77
2018-02-25T06:51:37.313Z,9.60
2018-02-25T06:54:19.212Z,13.05
2018-02-25T06:56:53.015Z,12.88
2018-02-25T06:59:26.612Z,11.52
2018-02-25T07:01:59.692Z,11.77
2018-02-25T07:04:31.653Z,10.55
2018-02-25T07:07:06.194Z,12.50
2018-02-25T07:09:43.253Z,12.68
2018-02-25T07:12:14.813Z,10.23
2018-02-25T07:14:47.173Z,12.37
2018-02-25T07:17:19.352Z,12.95
2018-02-25T07:19:54.494Z,13.52
2018-02-25T07:22:27.373Z,10.88
2018-02-25T07:24:59.652Z,13.90
2018-02-25T07:27:31.812Z,11.10
2018-02-25T07:30:03.513Z,13.70
2018-02-25T07:32:35.632Z,11.85
2018-02-25T07:35:07.293Z,12.52
2018-02-25T07:37:40.552Z,15.30
2018-02-25T07:40:13.872Z,13.15
2018-02-25T07:42:45.632Z,14.98
2018-02-25T07:45:21.533Z,13.00
2018-02-25T07:47:54.672Z,14.07
2018-02-25T07:50:27.852Z,14.65
2018-02-25T07:52:59.413Z,11.15
2018-02-25T07:55:30.532Z,13.18
2018-02-25T07:58:02.913Z,12.48
2018-02-25T08:00:39.294Z,14.30
2018-02-25T08:03:11.673Z,13.93
2018-02-25T08:05:42.552Z,13.68
2018-02-25T08:08:13.433Z,16.85
2018-02-25T08:10:46.412Z,14.87
2018-02-25T08:13:18.792Z,12.43
2018-02-25T08:15:50.752Z,13.32
2018-02-25T08:18:24.354Z,14.30
2018-02-25T08:20:55.698Z,15.18
2018-02-25T08:23:29.512Z,10.63
2018-02-25T08:26:01.252Z,15.38
2018-02-25T08:28:32.714Z,14.60
2018-02-25T08:31:05.096Z,13.07
2018-02-25T08:33:36.733Z,15.35
2018-02-25T08:36:11.152Z,13.88
2018-02-25T08:38:42.911Z,12.50
2018-02-25T08:41:15.993Z,10.75
2018-02-25T08:43:48.994Z,15.27
2018-02-25T08:46:25.252Z,13.68
2018-02-25T08:48:58.035Z,12.68
2018-02-25T08:51:29.392Z,13.25
2018-02-25T08:54:00.933Z,13.20
2018-02-25T08:56:32.552Z,14.82
2018-02-25T08:59:03.633Z,14.55
2018-02-25T09:01:37.232Z,11.77
2018-02-25T09:04:11.432Z,15.00
2018-02-25T09:06:46.792Z,13.43
2018-02-25T09:09:18.772Z,15.60
2018-02-25T09:11:49.992Z,12.27
2018-02-25T09:14:23.393Z,14.90
2018-02-25T09:16:56.172Z,14.52
2018-02-25T09:19:27.912Z,12.93
2018-02-25T09:22:01.934Z,15.00
2018-02-25T09:24:34.412Z,13.32
2018-02-25T09:27:05.452Z,13.75
2018-02-25T09:29:36.892Z,14.85
2018-02-25T09:32:09.152Z,14.27
2018-02-25T09:34:41.236Z,14.45
2018-02-25T09:37:12.452Z,14.32
2018-02-25T09:39:43.515Z,13.25
2018-02-25T09:42:19.872Z,13.30
2018-02-25T09:44:52.352Z,15.35
2018-02-25T09:47:24.111Z,13.40
2018-02-25T09:49:56.172Z,14.02
2018-02-25T09:52:29.351Z,14.65
2018-02-25T09:55:03.074Z,14.00
2018-02-25T09:57:34.512Z,14.75
2018-02-25T10:00:05.952Z,16.05
2018-02-25T10:02:38.632Z,12.90
2018-02-25T10:05:10.292Z,16.35
2018-02-25T10:07:43.172Z,15.10
2018-02-25T10:10:16.258Z,13.65
2018-02-25T10:12:52.413Z,15.55
2018-02-25T10:15:24.551Z,16.37
2018-02-25T10:18:01.172Z,15.25
2018-02-25T10:20:34.032Z,15.30
2018-02-25T10:23:06.012Z,12.80
2018-02-25T10:25:37.252Z,15.35
2018-02-25T10:28:09.313Z,14.68
2018-02-25T10:30:40.452Z,17.12
2018-02-25T10:33:10.692Z,15.52
2018-02-25T10:35:42.533Z,16.62
2018-02-25T10:38:14.193Z,14.13
2018-02-25T10:40:49.733Z,15.45
2018-02-25T10:43:22.832Z,16.23
2018-02-25T10:45:54.392Z,17.08
2018-02-25T10:48:26.232Z,13.73
2018-02-25T10:51:02.091Z,17.12
2018-02-25T10:53:34.472Z,15.52
2018-02-25T10:56:06.432Z,14.00
2018-02-25T10:58:38.593Z,15.95
2018-02-25T11:01:14.651Z,15.98
2018-02-25T11:03:52.038Z,16.65
2018-02-25T11:06:23.593Z,16.25
2018-02-25T11:08:54.112Z,18.40
2018-02-25T11:11:26.993Z,15.50
2018-02-25T11:13:59.772Z,16.20
2018-02-25T11:16:32.271Z,16.02
2018-02-25T11:19:04.514Z,16.48
2018-02-25T11:21:40.492Z,14.98
2018-02-25T11:24:12.631Z,14.20
2018-02-25T11:26:45.212Z,15.00
2018-02-25T11:29:17.293Z,15.55
2018-02-25T11:31:49.554Z,15.10
2018-02-25T11:34:20.893Z,15.77
2018-02-25T11:36:52.652Z,13.90
2018-02-25T11:39:30.533Z,16.20
2018-02-25T11:42:04.052Z,16.60
2018-02-25T11:44:35.594Z,17.10
2018-02-25T11:47:09.834Z,15.63
2018-02-25T11:49:43.433Z,16.10
2018-02-25T11:52:17.332Z,17.08
2018-02-25T11:54:49.092Z,16.20
2018-02-25T11:57:21.974Z,13.98
2018-02-25T11:59:54.453Z,15.88
2018-02-25T12:02:25.573Z,15.45
2018-02-25T12:04:56.010Z,10.23
2018-02-25T12:07:27.073Z,16.00
2018-02-25T12:09:59.232Z,12.63
2018-02-25T12:12:30.052Z,17.37
2018-02-25T12:15:01.552Z,15.40
2018-02-25T12:17:34.074Z,11.60
2018-02-25T12:20:04.496Z,16.60
2018-02-25T12:22:35.652Z,16.62
2018-02-25T12:25:07.811Z,11.60
2018-02-25T12:27:38.952Z,13.90
2018-02-25T12:30:14.392Z,15.15
2018-02-25T12:32:46.252Z,15.18
2018-02-25T12:35:17.553Z,13.48
2018-02-25T12:37:52.952Z,14.82
2018-02-25T12:40:26.032Z,16.27
2018-02-25T12:43:01.693Z,16.87
2018-02-25T12:45:34.273Z,16.98
2018-02-25T12:48:06.112Z,13.55
2018-02-25T12:50:38.292Z,14.77
2018-02-25T12:53:10.252Z,14.90
2018-02-25T12:55:41.172Z,14.50
2018-02-25T12:58:12.447Z,13.57
2018-02-25T13:00:44.393Z,15.38
2018-02-25T13:03:19.640Z,16.73
2018-02-25T13:05:51.292Z,15.60
2018-02-25T13:08:22.592Z,14.40
2018-02-25T13:10:54.713Z,14.55
2018-02-25T13:13:26.672Z,12.60
2018-02-25T13:16:00.373Z,12.15
2018-02-25T13:18:33.452Z,12.05
2018-02-25T13:21:05.312Z,10.20
2018-02-25T13:23:36.752Z,13.00
2018-02-25T13:26:09.592Z,15.02
2018-02-25T13:28:43.352Z,13.50
2018-02-25T13:31:17.053Z,11.52
2018-02-25T13:33:48.815Z,14.18
2018-02-25T13:36:24.952Z,13.70
2018-02-25T13:38:58.153Z,13.95
2018-02-25T13:41:30.614Z,12.02
2018-02-25T13:44:01.673Z,11.02
2018-02-25T13:46:36.913Z,14.57
2018-02-25T13:49:08.973Z,11.32
2018-02-25T13:51:41.352Z,10.85
2018-02-25T13:54:14.112Z,11.12
2018-02-25T13:56:47.112Z,11.38
2018-02-25T13:59:18.754Z,10.88
2018-02-25T14:01:53.092Z,11.30
2018-02-25T14:04:27.492Z,10.80
2018-02-25T14:06:58.591Z,12.43
2018-02-25T14:09:30.292Z,10.35
2018-02-25T14:12:01.954Z,13.88
2018-02-25T14:14:34.338Z,12.48
2018-02-25T14:17:06.553Z,14.32
2018-02-25T14:19:48.552Z,10.43
2018-02-25T14:22:21.553Z,8.30
2018-02-25T14:24:53.533Z,11.65
2018-02-25T14:27:24.072Z,10.38
2018-02-25T14:29:56.132Z,11.75
2018-02-25T14:32:30.032Z,13.13
2018-02-25T14:35:01.292Z,12.20
2018-02-25T14:37:31.912Z,11.25
2018-02-25T14:40:03.056Z,11.45
2018-02-25T14:42:34.812Z,9.75
2018-02-25T14:45:06.673Z,9.07
2018-02-25T14:47:45.572Z,11.90
2018-02-25T14:50:20.012Z,11.75
2018-02-25T14:52:51.254Z,8.93
2018-02-25T14:55:23.213Z,11.70
2018-02-25T14:57:56.312Z,12.52
2018-02-25T15:00:29.191Z,8.18
2018-02-25T15:03:01.052Z,11.23
2018-02-25T15:05:32.573Z,12.70
2018-02-25T15:08:04.573Z,8.02
2018-02-25T15:10:35.193Z,11.65
2018-02-25T15:13:07.577Z,12.85
2018-02-25T15:15:39.552Z,9.23
2018-02-25T15:18:15.573Z,7.57
2018-02-25T15:20:49.495Z,10.93
2018-02-25T15:23:21.033Z,11.50
2018-02-25T15:25:51.872Z,9.10
2018-02-25T15:28:22.834Z,9.75
2018-02-25T15:30:58.253Z,9.77
2018-02-25T15:33:29.513Z,11.02
2018-02-25T15:36:01.353Z,9.75
2018-02-25T15:38:35.572Z,9.63
2018-02-25T15:41:08.252Z,10.32
2018-02-25T15:43:39.494Z,7.87
2018-02-25T15:46:14.133Z,10.70
2018-02-25T15:48:46.592Z,7.03
2018-02-25T15:51:18.272Z,9.25
2018-02-25T15:53:50.232Z,10.00
2018-02-25T15:56:23.214Z,8.88
2018-02-25T15:58:55.472Z,8.07
2018-02-25T16:01:26.579Z,8.82
2018-02-25T16:03:58.792Z,8.88
2018-02-25T16:06:30.951Z,9.30
2018-02-25T16:09:02.292Z,8.82
2018-02-25T16:11:36.412Z,10.40
2018-02-25T16:14:08.473Z,9.45
2018-02-25T16:16:41.552Z,9.80
2018-02-25T16:19:14.573Z,8.40
2018-02-25T16:21:46.574Z,8.57
2018-02-25T16:24:17.333Z,8.57
2018-02-25T16:26:49.716Z,7.93
2018-02-25T16:29:21.972Z,8.45
2018-02-25T16:31:53.113Z,6.75
2018-02-25T16:34:25.193Z,8.75
2018-02-25T16:36:56.953Z,9.18
2018-02-25T16:39:28.394Z,7.57
2018-02-25T16:42:01.992Z,10.00
2018-02-25T16:44:33.953Z,8.00
2018-02-25T16:47:08.074Z,8.18
2018-02-25T16:49:40.034Z,9.25
2018-02-25T16:52:12.513Z,8.35
2018-02-25T16:54:45.173Z,9.32
2018-02-25T16:57:15.912Z,9.32
2018-02-25T16:59:47.255Z,9.10
2018-02-25T17:02:22.292Z,7.93
2018-02-25T17:04:54.632Z,9.32
2018-02-25T17:07:25.813Z,9.43
2018-02-25T17:10:02.594Z,8.60
2018-02-25T17:12:36.092Z,9.20
2018-02-25T17:15:08.252Z,8.48
2018-02-25T17:17:40.014Z,8.85
2018-02-25T17:20:12.373Z,9.35
2018-02-25T17:22:44.532Z,9.10
2018-02-25T17:25:17.736Z,7.55
2018-02-25T17:27:49.894Z,7.80
2018-02-25T17:30:21.593Z,8.50
2018-02-25T17:32:53.514Z,9.13
2018-02-25T17:35:25.633Z,8.48
2018-02-25T17:37:56.735Z,8.10
2018-02-25T17:40:28.173Z,9.13
2018-02-25T17:43:00.553Z,8.00
2018-02-25T17:45:31.692Z,8.15
2018-02-25T17:48:03.953Z,7.57
2018-02-25T17:50:36.014Z,6.72
2018-02-25T17:53:07.612Z,8.00
2018-02-25T17:55:40.474Z,6.95
2018-02-25T17:58:10.673Z,9.85
2018-02-25T18:00:45.613Z,8.15
2018-02-25T18:03:17.993Z,8.85
2018-02-25T18:05:51.593Z,9.63
2018-02-25T18:08:23.612Z,7.20
2018-02-25T18:10:55.912Z,8.68
2018-02-25T18:13:28.913Z,9.13
2018-02-25T18:16:00.134Z,7.80
2018-02-25T18:18:31.993Z,9.40
2018-02-25T18:21:03.852Z,8.57
2018-02-25T18:23:37.052Z,9.30
2018-02-25T18:26:08.193Z,8.10
2018-02-25T18:28:41.075Z,8.80
2018-02-25T18:31:13.132Z,9.38
2018-02-25T18:33:46.372Z,8.55
2018-02-25T18:36:17.274Z,7.97
2018-02-25T18:38:48.592Z,9.52
2018-02-25T18:41:20.273Z,8.27
2018-02-25T18:43:51.834Z,8.57
2018-02-25T18:46:31.173Z,8.95
2018-02-25T18:49:02.714Z,9.15
2018-02-25T18:51:33.852Z,10.10
2018-02-25T18:54:06.432Z,9.52
2018-02-25T18:56:39.113Z,10.00
2018-02-25T18:59:10.873Z,9.35
2018-02-25T19:01:42.732Z,8.75
2018-02-25T19:04:16.587Z,10.35
2018-02-25T19:06:49.234Z,7.03
2018-02-25T19:09:21.472Z,9.85
2018-02-25T19:11:54.633Z,6.30
2018-02-25T19:14:31.612Z,9.60
2018-02-25T19:17:03.292Z,9.55
2018-02-25T19:19:34.634Z,8.10
2018-02-25T19:22:07.014Z,8.32
2018-02-25T19:24:39.292Z,9.45
2018-02-25T19:27:11.353Z,10.38
2018-02-25T19:29:44.233Z,8.20
2018-02-25T19:32:19.173Z,8.20
2018-02-25T19:34:50.117Z,8.73
2018-02-25T19:37:28.212Z,8.00
2018-02-25T19:40:04.173Z,8.98
2018-02-25T19:42:35.912Z,10.30
2018-02-25T19:45:08.192Z,10.80
2018-02-25T19:47:41.273Z,10.80
2018-02-25T19:50:21.615Z,8.80
2018-02-25T19:52:54.612Z,9.23
2018-02-25T19:55:32.433Z,11.80
2018-02-25T19:58:03.576Z,9.60
2018-02-25T20:00:35.532Z,10.45
2018-02-25T20:03:06.373Z,11.15
2018-02-25T20:05:37.814Z,8.77
2018-02-25T20:08:08.432Z,9.65
2018-02-25T20:10:40.913Z,10.57
2018-02-25T20:13:18.713Z,11.15
2018-02-25T20:15:50.573Z,11.95
2018-02-25T20:18:25.716Z,9.55
2018-02-25T20:20:56.753Z,7.87
2018-02-25T20:23:28.911Z,10.80
2018-02-25T20:26:04.051Z,11.40
2018-02-25T20:28:35.591Z,9.25
2018-02-25T20:31:06.531Z,9.07
2018-02-25T20:33:37.472Z,8.73
2018-02-25T20:36:09.431Z,11.40
2018-02-25T20:38:45.594Z,11.55
2018-02-25T20:41:16.332Z,10.30
2018-02-25T20:43:48.291Z,7.72
2018-02-25T20:46:20.051Z,11.65
2018-02-25T20:48:59.610Z,10.88
2018-02-25T20:51:31.150Z,10.57
2018-02-25T20:54:09.612Z,8.43
2018-02-25T20:56:44.611Z,9.50
2018-02-25T20:59:16.851Z,9.77
2018-02-25T21:01:48.412Z,11.07
2018-02-25T21:04:21.611Z,8.45
2018-02-25T21:06:53.879Z,11.12
2018-02-25T21:09:26.570Z,9.55
2018-02-25T21:11:57.791Z,8.63
2018-02-25T21:14:29.150Z,10.63
2018-02-25T21:17:01.411Z,10.32
2018-02-25T21:19:32.151Z,8.05
2018-02-25T21:22:04.711Z,12.07
2018-02-25T21:24:37.095Z,9.05
2018-02-25T21:27:15.612Z,11.45
2018-02-25T21:29:47.351Z,10.90
2018-02-25T21:32:20.871Z,10.15
2018-02-25T21:34:53.130Z,9.40
2018-02-25T21:37:25.091Z,10.60
2018-02-25T21:39:57.051Z,10.00
2018-02-25T21:42:28.631Z,10.68
2018-02-25T21:45:02.092Z,8.00
2018-02-25T21:47:36.012Z,9.02
2018-02-25T21:50:08.634Z,9.40
2018-02-25T21:52:46.596Z,9.85
2018-02-25T21:55:18.956Z,10.25
2018-02-25T21:57:55.930Z,10.35
2018-02-25T22:00:33.431Z,10.45
2018-02-25T22:03:11.010Z,11.02
2018-02-25T22:05:43.591Z,10.82
2018-02-25T22:08:15.033Z,9.85
2018-02-25T22:10:46.611Z,9.02
2018-02-25T22:13:20.912Z,8.10
2018-02-25T22:15:54.931Z,11.48
2018-02-25T22:18:25.850Z,9.32
2018-02-25T22:20:57.011Z,10.57
2018-02-25T22:23:28.350Z,11.40
2018-02-25T22:25:59.493Z,7.68
2018-02-25T22:28:31.771Z,10.80
2018-02-25T22:31:04.031Z,10.02
2018-02-25T22:33:35.490Z,10.38
2018-02-25T22:36:06.732Z,7.72
2018-02-25T22:38:38.651Z,9.18
2018-02-25T22:41:10.851Z,9.52
2018-02-25T22:43:45.591Z,8.38
2018-02-25T22:46:19.814Z,9.93
2018-02-25T22:48:50.950Z,9.05
2018-02-25T22:51:22.791Z,8.77
2018-02-25T22:53:54.731Z,9.15
2018-02-25T22:56:27.631Z,9.25
2018-02-25T22:58:58.590Z,9.60
2018-02-25T23:01:31.190Z,10.00
2018-02-25T23:04:05.071Z,9.05
2018-02-25T23:06:36.931Z,10.32
2018-02-25T23:09:10.311Z,9.70
2018-02-25T23:11:44.730Z,13.02
2018-02-25T23:14:16.590Z,9.90
2018-02-25T23:16:54.191Z,9.98
2018-02-25T23:19:24.810Z,9.50
2018-02-25T23:21:58.311Z,9.35
2018-02-25T23:24:30.391Z,10.07
2018-02-25T23:27:02.351Z,9.93
2018-02-25T23:29:36.050Z,9.48
2018-02-25T23:32:13.730Z,7.80
2018-02-25T23:34:44.791Z,7.15
2018-02-25T23:37:16.750Z,10.32
2018-02-25T23:39:47.990Z,10.15
2018-02-25T23:42:26.510Z,8.20
2018-02-25T23:44:58.791Z,7.32
2018-02-25T23:47:30.331Z,10.00
2018-02-25T23:50:03.093Z,8.77
2018-02-25T23:52:34.459Z,9.65
2018-02-25T23:55:12.152Z,10.40
2018-02-25T23:57:43.651Z,9.35
